createdAt,value
2022-10-05T00:00:29.682Z,101732.22
2022-10-05T00:02:59.378Z,101722.44
2022-10-05T00:05:32.273Z,101714.41
2022-10-05T00:08:09.285Z,101718.06
2022-10-05T00:10:37.585Z,101719.97
2022-10-05T00:13:12.745Z,101716.41
2022-10-05T00:15:40.571Z,101716.41
2022-10-05T00:18:15.379Z,101712.66
2022-10-05T00:20:44.146Z,101708.28
2022-10-05T00:23:18.647Z,101710.19
2022-10-05T00:25:46.620Z,101704.75
2022-10-05T00:28:19.639Z,101702.88
2022-10-05T00:30:47.662Z,101705.59
2022-10-05T00:33:16.716Z,101701.22
2022-10-05T00:35:44.496Z,101703.94
2022-10-05T00:38:12.384Z,101709.34
2022-10-05T00:40:54.899Z,101703.94
2022-10-05T00:43:47.560Z,101703.09
2022-10-05T00:46:23.399Z,101703.09
2022-10-05T00:49:07.580Z,101700.63
2022-10-05T00:51:38.062Z,101701.47
2022-10-05T00:54:19.440Z,101706.06
2022-10-05T00:57:04.046Z,101699.81
2022-10-05T00:59:47.676Z,101707.69
2022-10-05T01:02:18.890Z,101700.03
2022-10-05T01:04:53.232Z,101698.97
2022-10-05T01:07:33.099Z,101698.16
2022-10-05T01:10:12.751Z,101694.63
2022-10-05T01:12:49.921Z,101685.66
2022-10-05T01:15:24.816Z,101682.97
2022-10-05T01:17:58.432Z,101680.25
2022-10-05T01:20:40.484Z,101675.06
2022-10-05T01:23:43.425Z,101677.78
2022-10-05T01:26:35.197Z,101672.59
2022-10-05T01:29:12.333Z,101670.69
2022-10-05T01:31:48.457Z,101667.16
2022-10-05T01:34:23.982Z,101660.09
2022-10-05T01:37:00.102Z,101661.97
2022-10-05T01:39:42.704Z,101664.69
2022-10-05T01:42:18.710Z,101662.22
2022-10-05T01:44:56.848Z,101654.91
2022-10-05T01:47:32.147Z,101647.06
2022-10-05T01:50:04.654Z,101632.41
2022-10-05T01:52:41.183Z,101656.25
2022-10-05T01:55:18.397Z,101642.69
2022-10-05T01:57:58.796Z,101646.47
2022-10-05T02:00:30.755Z,101642.69
2022-10-05T02:03:04.327Z,101646.47
2022-10-05T02:05:39.670Z,101639.59
2022-10-05T02:08:12.547Z,101635.81
2022-10-05T02:10:45.787Z,101628.75
2022-10-05T02:13:16.963Z,101630.41
2022-10-05T02:15:50.422Z,101634.19
2022-10-05T02:18:22.245Z,101619.81
2022-10-05T02:20:53.378Z,101612.75
2022-10-05T02:23:25.342Z,101616.28
2022-10-05T02:25:56.465Z,101614.63
2022-10-05T02:28:28.940Z,101614.63
2022-10-05T02:31:05.355Z,101616.50
2022-10-05T02:33:34.794Z,101613.81
2022-10-05T02:36:03.958Z,101609.19
2022-10-05T02:38:41.382Z,101601.31
2022-10-05T02:41:17.793Z,101601.06
2022-10-05T02:43:54.485Z,101594.00
2022-10-05T02:46:28.115Z,101591.31
2022-10-05T02:49:13.791Z,101583.16
2022-10-05T02:51:47.746Z,101582.34
2022-10-05T02:54:26.251Z,101585.06
2022-10-05T02:57:01.659Z,101581.53
2022-10-05T02:59:36.588Z,101578.00
2022-10-05T03:02:14.302Z,101579.88
2022-10-05T03:04:49.220Z,101576.34
2022-10-05T03:07:20.921Z,101572.81
2022-10-05T03:10:00.790Z,101567.41
2022-10-05T03:12:43.856Z,101568.44
2022-10-05T03:15:26.086Z,101555.72
2022-10-05T03:18:06.060Z,101560.31
2022-10-05T03:20:43.181Z,101562.22
2022-10-05T03:23:20.453Z,101562.44
2022-10-05T03:26:11.298Z,101553.16
2022-10-05T03:28:51.911Z,101554.31
2022-10-05T03:31:26.907Z,101561.63
2022-10-05T03:34:00.625Z,101560.78
2022-10-05T03:36:35.808Z,101558.31
2022-10-05T03:39:10.832Z,101553.97
2022-10-05T03:41:46.668Z,101551.25
2022-10-05T03:44:37.153Z,101562.34
2022-10-05T03:47:13.533Z,101547.38
2022-10-05T03:49:55.183Z,101553.38
2022-10-05T03:52:28.566Z,101561.50
2022-10-05T03:55:01.220Z,101557.97
2022-10-05T03:57:33.324Z,101557.97
2022-10-05T04:00:05.849Z,101559.03
2022-10-05T04:02:37.000Z,101567.41
2022-10-05T04:05:15.206Z,101559.16
2022-10-05T04:07:47.450Z,101562.81
2022-10-05T04:10:21.048Z,101550.69
2022-10-05T04:12:55.144Z,101565.75
2022-10-05T04:15:31.605Z,101564.94
2022-10-05T04:18:04.335Z,101559.50
2022-10-05T04:20:39.755Z,101556.78
2022-10-05T04:23:18.285Z,101556.22
2022-10-05T04:25:51.668Z,101560.81
2022-10-05T04:28:31.983Z,101565.41
2022-10-05T04:31:04.206Z,101558.09
2022-10-05T04:33:33.174Z,101554.56
2022-10-05T04:36:17.901Z,101558.09
2022-10-05T04:38:53.595Z,101548.31
2022-10-05T04:41:37.384Z,101549.97
2022-10-05T04:44:19.780Z,101551.84
2022-10-05T04:47:05.152Z,101544.56
2022-10-05T04:49:51.078Z,101542.06
2022-10-05T04:52:28.705Z,101542.06
2022-10-05T04:55:05.927Z,101545.59
2022-10-05T04:57:55.134Z,101537.72
2022-10-05T05:00:24.966Z,101546.44
2022-10-05T05:03:15.630Z,101534.78
2022-10-05T05:06:15.301Z,101539.38
2022-10-05T05:09:05.911Z,101540.19
2022-10-05T05:11:42.861Z,101526.88
2022-10-05T05:14:39.119Z,101535.00
2022-10-05T05:17:23.491Z,101536.66
2022-10-05T05:20:00.254Z,101526.88
2022-10-05T05:22:41.569Z,101532.31
2022-10-05T05:25:26.468Z,101535.00
2022-10-05T05:27:56.734Z,101527.94
2022-10-05T05:30:27.902Z,101528.78
2022-10-05T05:33:09.723Z,101530.44
2022-10-05T05:36:00.082Z,101502.28
2022-10-05T05:38:35.848Z,101518.75
2022-10-05T05:41:13.905Z,101515.22
2022-10-05T05:43:58.927Z,101519.81
2022-10-05T05:46:58.257Z,101510.06
2022-10-05T05:49:26.132Z,101507.47
2022-10-05T05:51:59.368Z,101515.47
2022-10-05T05:54:31.997Z,101506.75
2022-10-05T05:57:10.990Z,101503.81
2022-10-05T06:00:00.575Z,101512.63
2022-10-05T06:02:35.401Z,101503.81
2022-10-05T06:05:21.196Z,101505.69
2022-10-05T06:07:49.246Z,101500.41
2022-10-05T06:10:29.431Z,101507.69
2022-10-05T06:13:04.844Z,101502.88
2022-10-05T06:15:39.481Z,101506.63
2022-10-05T06:18:12.769Z,101498.75
2022-10-05T06:20:45.459Z,101502.75
2022-10-05T06:23:19.600Z,101503.00
2022-10-05T06:26:08.275Z,101495.94
2022-10-05T06:28:39.761Z,101507.59
2022-10-05T06:31:21.771Z,101502.16
2022-10-05T06:33:52.761Z,101497.69
2022-10-05T06:36:33.874Z,101506.06
2022-10-05T06:39:39.249Z,101500.88
2022-10-05T06:42:24.899Z,101510.06
2022-10-05T06:45:01.494Z,101494.28
2022-10-05T06:47:37.597Z,101508.41
2022-10-05T06:50:16.078Z,101511.81
2022-10-05T06:52:59.873Z,101506.06
2022-10-05T06:55:33.174Z,101501.69
2022-10-05T06:58:14.113Z,101506.16
2022-10-05T07:00:49.136Z,101507.69
2022-10-05T07:03:26.641Z,101500.03
2022-10-05T07:06:01.170Z,101498.97
2022-10-05T07:08:41.705Z,101506.28
2022-10-05T07:11:24.759Z,101500.88
2022-10-05T07:14:14.360Z,101497.34
2022-10-05T07:16:57.239Z,101505.22
2022-10-05T07:19:36.352Z,101498.16
2022-10-05T07:22:40.831Z,101505.22
2022-10-05T07:25:16.301Z,101508.75
2022-10-05T07:27:51.934Z,101505.81
2022-10-05T07:30:20.150Z,101513.94
2022-10-05T07:32:59.774Z,101508.53
2022-10-05T07:35:57.398Z,101515.34
2022-10-05T07:38:32.858Z,101502.03
2022-10-05T07:41:06.781Z,101508.53
2022-10-05T07:44:00.890Z,101504.97
2022-10-05T07:46:43.729Z,101491.69
2022-10-05T07:49:19.336Z,101504.50
2022-10-05T07:51:50.586Z,101515.59
2022-10-05T07:54:24.916Z,101507.47
2022-10-05T07:57:02.168Z,101513.69
2022-10-05T07:59:35.994Z,101515.59
2022-10-05T08:02:14.196Z,101508.16
2022-10-05T08:04:53.136Z,101503.94
2022-10-05T08:07:21.268Z,101516.75
2022-10-05T08:09:56.019Z,101509.69
2022-10-05T08:12:31.893Z,101506.16
2022-10-05T08:15:04.084Z,101501.81
2022-10-05T08:17:41.642Z,101499.09
2022-10-05T08:20:30.850Z,101506.16
2022-10-05T08:23:03.282Z,101497.09
2022-10-05T08:25:42.409Z,101491.19
2022-10-05T08:28:18.116Z,101496.13
2022-10-05T08:30:55.896Z,101486.13
2022-10-05T08:33:27.227Z,101476.13
2022-10-05T08:36:05.685Z,101477.88
2022-10-05T08:38:34.621Z,101482.09
2022-10-05T08:41:32.448Z,101484.22
2022-10-05T08:44:25.213Z,101485.78
2022-10-05T08:47:19.443Z,101477.09
2022-10-05T08:50:04.283Z,101480.31
2022-10-05T08:52:51.387Z,101471.94
2022-10-05T08:55:30.496Z,101474.78
2022-10-05T08:58:21.638Z,101475.94
2022-10-05T09:00:57.105Z,101483.50
2022-10-05T09:03:47.410Z,101477.41
2022-10-05T09:06:52.635Z,101475.16
2022-10-05T09:09:50.954Z,101464.31
2022-10-05T09:12:40.995Z,101468.91
2022-10-05T09:15:32.393Z,101467.25
2022-10-05T09:18:38.940Z,101458.91
2022-10-05T09:21:21.636Z,101467.81
2022-10-05T09:23:57.628Z,101463.47
2022-10-05T09:26:44.410Z,101461.78
2022-10-05T09:29:36.897Z,101464.38
2022-10-05T09:32:34.052Z,101460.22
2022-10-05T09:35:18.154Z,101463.38
2022-10-05T09:38:08.388Z,101453.50
2022-10-05T09:41:22.367Z,101461.25
2022-10-05T09:44:32.596Z,101465.13
2022-10-05T09:47:30.315Z,101460.28
2022-10-05T09:50:05.711Z,101453.44
2022-10-05T09:52:54.668Z,101451.22
2022-10-05T09:55:41.643Z,101445.66
2022-10-05T09:58:40.478Z,101440.66
2022-10-05T10:01:34.255Z,101437.41
2022-10-05T10:04:17.075Z,101434.84
2022-10-05T10:07:06.252Z,101438.88
2022-10-05T10:09:50.459Z,101431.00
2022-10-05T10:12:30.833Z,101431.88
2022-10-05T10:15:33.058Z,101424.06
2022-10-05T10:18:31.131Z,101419.97
2022-10-05T10:21:13.322Z,101421.47
2022-10-05T10:24:00.328Z,101417.59
2022-10-05T10:26:56.437Z,101425.69
2022-10-05T10:29:57.464Z,101414.06
2022-10-05T10:33:11.711Z,101403.28
2022-10-05T10:35:45.924Z,101400.16
2022-10-05T10:38:33.792Z,101398.69
2022-10-05T10:41:28.932Z,101391.28
2022-10-05T10:44:30.060Z,101393.09
2022-10-05T10:47:25.611Z,101399.34
2022-10-05T10:50:13.128Z,101402.22
2022-10-05T10:52:59.603Z,101392.78
2022-10-05T10:55:42.895Z,101389.16
2022-10-05T10:58:52.305Z,101373.44
2022-10-05T11:01:32.593Z,101374.69
2022-10-05T11:04:49.491Z,101375.25
2022-10-05T11:07:33.232Z,101362.69
2022-10-05T11:10:19.856Z,101373.78
2022-10-05T11:13:15.149Z,101355.94
2022-10-05T11:16:08.832Z,101358.66
2022-10-05T11:18:52.366Z,101353.88
2022-10-05T11:21:31.719Z,101346.03
2022-10-05T11:24:31.183Z,101344.66
2022-10-05T11:30:23.404Z,101342.94
2022-10-05T11:33:12.610Z,101343.69
2022-10-05T11:35:59.480Z,101345.31
2022-10-05T11:38:49.311Z,101327.72
2022-10-05T11:41:45.327Z,101337.75
2022-10-05T11:44:41.179Z,101328.94
2022-10-05T11:47:18.470Z,101300.06
2022-10-05T11:49:53.648Z,101317.31
2022-10-05T11:52:24.277Z,101308.09
2022-10-05T11:55:19.644Z,101311.97
2022-10-05T11:57:54.964Z,101308.16
2022-10-05T12:00:26.017Z,101295.72
2022-10-05T12:03:23.929Z,101302.28
2022-10-05T12:06:12.940Z,101284.09
2022-10-05T12:08:53.484Z,101278.94
2022-10-05T12:11:38.127Z,101279.56
2022-10-05T12:14:14.631Z,101271.72
2022-10-05T12:16:50.560Z,101263.84
2022-10-05T12:19:27.228Z,101257.06
2022-10-05T12:21:59.792Z,101261.75
2022-10-05T12:24:44.735Z,101247.84
2022-10-05T12:27:18.011Z,101240.41
2022-10-05T12:29:51.571Z,101244.06
2022-10-05T12:32:25.678Z,101249.50
2022-10-05T12:35:02.286Z,101249.84
2022-10-05T12:37:42.523Z,101236.88
2022-10-05T12:40:24.005Z,101257.03
2022-10-05T12:43:01.350Z,101243.50
2022-10-05T12:45:43.576Z,101252.78
2022-10-05T12:48:33.562Z,101251.34
2022-10-05T12:51:08.235Z,101253.50
2022-10-05T12:53:50.237Z,101241.03
2022-10-05T12:56:31.025Z,101244.28
2022-10-05T12:59:05.967Z,101252.44
2022-10-05T13:01:41.165Z,101242.66
2022-10-05T13:04:24.343Z,101257.88
2022-10-05T13:07:07.545Z,101232.59
2022-10-05T13:09:40.812Z,101252.59
2022-10-05T13:12:19.118Z,101242.78
2022-10-05T13:15:00.511Z,101221.09
2022-10-05T13:17:36.878Z,101236.66
2022-10-05T13:20:14.599Z,101233.09
2022-10-05T13:22:47.630Z,101238.22
2022-10-05T13:25:28.583Z,101237.19
2022-10-05T13:28:12.632Z,101241.97
2022-10-05T13:30:46.284Z,101240.28
2022-10-05T13:33:21.427Z,101244.72
2022-10-05T13:36:01.872Z,101239.84
2022-10-05T13:38:42.032Z,101246.88
2022-10-05T13:41:19.392Z,101244.38
2022-10-05T13:43:58.903Z,101241.09
2022-10-05T13:46:37.455Z,101263.41
2022-10-05T13:49:21.727Z,101261.22
2022-10-05T13:51:58.944Z,101270.44
2022-10-05T13:54:37.288Z,101269.44
2022-10-05T13:57:17.362Z,101266.69
2022-10-05T13:59:54.438Z,101265.31
2022-10-05T14:02:28.253Z,101266.38
2022-10-05T14:05:01.127Z,101273.47
2022-10-05T14:07:35.454Z,101266.81
2022-10-05T14:10:04.865Z,101283.31
2022-10-05T14:12:41.114Z,101274.38
2022-10-05T14:15:22.763Z,101278.16
2022-10-05T14:17:52.820Z,101270.31
2022-10-05T14:20:25.014Z,101271.38
2022-10-05T14:22:58.456Z,101267.00
2022-10-05T14:25:27.029Z,101266.69
2022-10-05T14:28:02.589Z,101273.50
2022-10-05T14:30:31.811Z,101281.66
2022-10-05T14:33:13.947Z,101278.94
2022-10-05T14:35:48.985Z,101279.47
2022-10-05T14:38:25.941Z,101282.44
2022-10-05T14:41:17.291Z,101308.59
2022-10-05T14:43:56.010Z,101297.16
2022-10-05T14:46:29.901Z,101314.50
2022-10-05T14:49:22.161Z,101317.25
2022-10-05T14:51:51.016Z,101318.59
2022-10-05T14:54:30.918Z,101343.13
2022-10-05T14:57:18.102Z,101346.88
2022-10-05T15:00:00.519Z,101364.25
2022-10-05T15:02:48.083Z,101361.28
2022-10-05T15:05:18.667Z,101366.47
2022-10-05T15:07:50.040Z,101377.84
2022-10-05T15:10:33.251Z,101392.78
2022-10-05T15:13:11.604Z,101401.19
2022-10-05T15:15:46.056Z,101412.06
2022-10-05T15:18:27.243Z,101420.78
2022-10-05T15:21:13.808Z,101404.22
2022-10-05T15:23:47.378Z,101401.41
2022-10-05T15:26:29.000Z,101415.25
2022-10-05T15:29:03.296Z,101405.97
2022-10-05T15:31:39.304Z,101409.50
2022-10-05T15:34:13.003Z,101415.44
2022-10-05T15:36:48.009Z,101404.63
2022-10-05T15:39:27.000Z,101407.03
2022-10-05T15:42:01.894Z,101402.16
2022-10-05T15:44:52.142Z,101399.72
2022-10-05T15:47:25.860Z,101401.34
2022-10-05T15:50:05.318Z,101392.13
2022-10-05T15:52:39.280Z,101384.41
2022-10-05T15:55:32.179Z,101394.53
2022-10-05T15:58:15.846Z,101397.25
2022-10-05T16:00:48.490Z,101394.53
2022-10-05T16:03:23.555Z,101394.28
2022-10-05T16:06:13.322Z,101380.63
2022-10-05T16:09:02.472Z,101396.22
2022-10-05T16:11:44.255Z,101407.59
2022-10-05T16:14:31.634Z,101414.13
2022-10-05T16:17:12.808Z,101409.19
2022-10-05T16:19:51.329Z,101407.59
2022-10-05T16:22:26.107Z,101415.69
2022-10-05T16:25:08.671Z,101418.41
2022-10-05T16:27:52.580Z,101424.09
2022-10-05T16:30:24.075Z,101428.16
2022-10-05T16:33:03.221Z,101428.41
2022-10-05T16:35:44.355Z,101430.88
2022-10-05T16:38:25.748Z,101426.00
2022-10-05T16:41:02.182Z,101416.28
2022-10-05T16:43:44.932Z,101427.91
2022-10-05T16:46:22.305Z,101425.75
2022-10-05T16:48:57.618Z,101435.22
2022-10-05T16:51:32.069Z,101432.50
2022-10-05T16:54:12.624Z,101438.25
2022-10-05T16:56:45.079Z,101436.88
2022-10-05T16:59:52.772Z,101438.47
2022-10-05T17:02:39.711Z,101440.41
2022-10-05T17:05:24.159Z,101446.03
2022-10-05T17:08:09.167Z,101457.22
2022-10-05T17:11:07.013Z,101453.38
2022-10-05T17:14:04.852Z,101457.47
2022-10-05T17:16:54.509Z,101456.59
2022-10-05T17:19:41.220Z,101454.38
2022-10-05T17:22:14.013Z,101450.66
2022-10-05T17:24:53.726Z,101468.03
2022-10-05T17:27:32.347Z,101459.81
2022-10-05T17:30:36.280Z,101452.16
2022-10-05T17:33:20.526Z,101463.59
2022-10-05T17:35:58.243Z,101462.78
2022-10-05T17:38:48.062Z,101462.22
2022-10-05T17:41:21.484Z,101464.09
2022-10-05T17:44:21.635Z,101472.06
2022-10-05T17:46:50.596Z,101470.75
2022-10-05T17:49:38.106Z,101466.06
2022-10-05T17:52:40.677Z,101471.84
2022-10-05T17:55:50.084Z,101471.97
2022-10-05T17:59:00.680Z,101476.75
2022-10-05T18:01:30.765Z,101482.63
2022-10-05T18:04:26.730Z,101489.66
2022-10-05T18:07:04.635Z,101488.66
2022-10-05T18:09:50.720Z,101483.59
2022-10-05T18:12:48.645Z,101489.03
2022-10-05T18:15:46.314Z,101495.16
2022-10-05T18:18:54.619Z,101493.00
2022-10-05T18:21:30.457Z,101498.69
2022-10-05T18:24:24.080Z,101500.22
2022-10-05T18:27:03.307Z,101496.59
2022-10-05T18:30:05.458Z,101502.84
2022-10-05T18:32:56.185Z,101503.50
2022-10-05T18:35:28.418Z,101506.47
2022-10-05T18:38:07.011Z,101504.13
2022-10-05T18:40:44.344Z,101504.38
2022-10-05T18:43:27.658Z,101505.72
2022-10-05T18:46:09.065Z,101512.47
2022-10-05T18:48:47.180Z,101506.47
2022-10-05T18:51:22.615Z,101508.75
2022-10-05T18:54:06.706Z,101503.50
2022-10-05T18:56:39.426Z,101506.72
2022-10-05T18:59:25.499Z,101517.59
2022-10-05T19:02:12.085Z,101512.66
2022-10-05T19:04:53.597Z,101525.53
2022-10-05T19:07:30.885Z,101523.44
2022-10-05T19:10:09.769Z,101533.56
2022-10-05T19:12:49.690Z,101533.97
2022-10-05T19:15:28.813Z,101542.06
2022-10-05T19:18:22.141Z,101541.28
2022-10-05T19:20:59.049Z,101544.19
2022-10-05T19:23:44.666Z,101552.41
2022-10-05T19:26:16.824Z,101549.63
2022-10-05T19:28:58.882Z,101540.72
2022-10-05T19:31:37.824Z,101536.84
2022-10-05T19:34:23.068Z,101546.31
2022-10-05T19:37:00.395Z,101551.06
2022-10-05T19:39:36.790Z,101545.97
2022-10-05T19:42:22.953Z,101556.00
2022-10-05T19:45:04.080Z,101553.22
2022-10-05T19:47:44.076Z,101558.09
2022-10-05T19:50:29.727Z,101565.75
2022-10-05T19:53:12.455Z,101588.66
2022-10-05T19:55:42.338Z,101618.97
2022-10-05T19:58:22.385Z,101657.78
2022-10-05T20:00:58.043Z,101654.72
2022-10-05T20:03:29.955Z,101641.06
2022-10-05T20:05:59.793Z,101646.50
2022-10-05T20:08:31.852Z,101655.72
2022-10-05T20:11:11.693Z,101654.91
2022-10-05T20:13:42.122Z,101657.03
2022-10-05T20:16:37.629Z,101659.75
2022-10-05T20:19:49.698Z,101662.72
2022-10-05T20:22:29.034Z,101673.59
2022-10-05T20:25:00.154Z,101673.59
2022-10-05T20:27:46.451Z,101670.03
2022-10-05T20:30:16.482Z,101681.72
2022-10-05T20:32:45.068Z,101675.66
2022-10-05T20:35:15.828Z,101681.94
2022-10-05T20:37:43.741Z,101709.19
2022-10-05T20:40:12.550Z,101712.16
2022-10-05T20:42:40.283Z,101711.31
2022-10-05T20:45:09.014Z,101704.00
2022-10-05T20:47:37.673Z,101720.53
2022-10-05T20:50:08.985Z,101728.94
2022-10-05T20:52:39.138Z,101740.06
2022-10-05T20:55:09.821Z,101727.69
2022-10-05T20:57:41.464Z,101746.78
2022-10-05T21:00:10.814Z,101753.28
2022-10-05T21:02:39.451Z,101757.41
2022-10-05T21:05:07.982Z,101761.44
2022-10-05T21:07:35.830Z,101766.06
2022-10-05T21:10:05.687Z,101759.94
2022-10-05T21:12:33.941Z,101775.28
2022-10-05T21:15:04.686Z,101782.59
2022-10-05T21:17:34.619Z,101788.28
2022-10-05T21:20:03.716Z,101810.84
2022-10-05T21:22:31.581Z,101838.25
2022-10-05T21:24:59.529Z,101866.47
2022-10-05T21:27:28.799Z,101883.25
2022-10-05T21:29:56.681Z,101871.81
2022-10-05T21:32:24.427Z,101889.75
2022-10-05T21:34:52.267Z,101878.78
2022-10-05T21:37:20.032Z,101893.09
2022-10-05T21:39:47.955Z,101882.69
2022-10-05T21:42:15.757Z,101892.16
2022-10-05T21:44:44.831Z,101885.53
2022-10-05T21:47:12.656Z,101884.59
2022-10-05T21:49:40.409Z,101905.38
2022-10-05T21:52:08.151Z,101897.47
2022-10-05T21:54:36.100Z,101897.94
2022-10-05T21:57:04.315Z,101894.41
2022-10-05T21:59:34.825Z,101904.69
2022-10-05T22:02:04.003Z,101897.00
2022-10-05T22:04:31.751Z,101905.38
2022-10-05T22:06:59.797Z,101902.69
2022-10-05T22:09:27.836Z,101912.72
2022-10-05T22:11:57.382Z,101918.38
2022-10-05T22:14:25.323Z,101924.03
2022-10-05T22:16:53.532Z,101921.56
2022-10-05T22:19:22.860Z,101925.34
2022-10-05T22:21:50.625Z,101933.72
2022-10-05T22:24:18.353Z,101937.50
2022-10-05T22:26:51.362Z,101946.72
2022-10-05T22:29:19.924Z,101955.09
2022-10-05T22:31:49.190Z,101959.94
2022-10-05T22:34:19.085Z,101958.28
2022-10-05T22:36:49.155Z,101974.78
2022-10-05T22:39:17.233Z,101982.13
2022-10-05T22:41:45.125Z,101994.03
2022-10-05T22:44:12.820Z,101986.94
2022-10-05T22:46:40.936Z,101999.69
2022-10-05T22:49:08.671Z,101994.47
2022-10-05T22:51:36.677Z,102016.19
2022-10-05T22:54:06.056Z,102012.88
2022-10-05T22:56:33.915Z,101982.63
2022-10-05T22:59:01.638Z,102010.41
2022-10-05T23:01:29.443Z,102012.50
2022-10-05T23:03:57.472Z,102019.81
2022-10-05T23:06:26.608Z,102026.31
2022-10-05T23:08:55.259Z,102029.25
2022-10-05T23:11:26.300Z,102038.47
2022-10-05T23:13:55.827Z,102040.13
2022-10-05T23:16:25.934Z,102030.88
2022-10-05T23:18:55.598Z,102033.50
2022-10-05T23:21:25.832Z,102047.31
2022-10-05T23:23:53.737Z,102049.19
2022-10-05T23:26:23.385Z,102056.72
2022-10-05T23:28:52.534Z,102059.69
2022-10-05T23:31:21.985Z,102050.81
2022-10-05T23:33:50.050Z,102071.59
2022-10-05T23:36:20.055Z,102076.41
2022-10-05T23:38:48.477Z,102080.19
2022-10-05T23:41:17.110Z,102088.56
2022-10-05T23:43:45.046Z,102083.38
2022-10-05T23:46:14.786Z,102099.88
2022-10-05T23:48:42.795Z,102110.97
2022-10-05T23:51:12.891Z,102103.03
2022-10-05T23:53:40.628Z,102117.66
2022-10-05T23:56:08.594Z,102123.31
2022-10-05T23:58:36.351Z,102135.22
